sensor_id;sensor_type;location;lat;lon;timestamp;temperature;humidity
1461;DHT22;724;49.910;12.530;2022-07-23T00:02:24;17.00;1.00
1461;DHT22;724;49.910;12.530;2022-07-23T00:04:51;17.00;1.00
1461;DHT22;724;49.910;12.530;2022-07-23T00:07:17;17.00;1.00
1461;DHT22;724;49.910;12.530;2022-07-23T00:09:44;16.90;1.00
1461;DHT22;724;49.910;12.530;2022-07-23T00:12:11;16.80;1.00
1461;DHT22;724;49.910;12.530;2022-07-23T00:14:37;16.80;1.00
1461;DHT22;724;49.910;12.530;2022-07-23T00:17:04;16.80;1.00
1461;DHT22;724;49.910;12.530;2022-07-23T00:19:32;16.80;1.00
1461;DHT22;724;49.910;12.530;2022-07-23T00:21:59;16.70;1.00
1461;DHT22;724;49.910;12.530;2022-07-23T00:24:25;16.80;1.00
1461;DHT22;724;49.910;12.530;2022-07-23T00:26:52;16.80;1.00
1461;DHT22;724;49.910;12.530;2022-07-23T00:29:19;16.70;1.00
1461;DHT22;724;49.910;12.530;2022-07-23T00:31:46;16.60;1.00
1461;DHT22;724;49.910;12.530;2022-07-23T00:34:12;16.50;1.00
1461;DHT22;724;49.910;12.530;2022-07-23T00:36:40;16.60;1.00
1461;DHT22;724;49.910;12.530;2022-07-23T00:39:07;16.60;1.00
1461;DHT22;724;49.910;12.530;2022-07-23T00:41:34;16.60;1.00
1461;DHT22;724;49.910;12.530;2022-07-23T00:44:14;16.70;1.00
1461;DHT22;724;49.910;12.530;2022-07-23T00:46:45;16.80;1.00
1461;DHT22;724;49.910;12.530;2022-07-23T00:49:12;16.90;1.00
1461;DHT22;724;49.910;12.530;2022-07-23T00:51:40;16.90;1.00
1461;DHT22;724;49.910;12.530;2022-07-23T00:54:07;16.90;1.00
1461;DHT22;724;49.910;12.530;2022-07-23T00:56:34;16.80;1.00
1461;DHT22;724;49.910;12.530;2022-07-23T00:59:01;16.80;1.00
1461;DHT22;724;49.910;12.530;2022-07-23T01:01:28;16.90;1.00
1461;DHT22;724;49.910;12.530;2022-07-23T01:03:55;16.90;1.00
1461;DHT22;724;49.910;12.530;2022-07-23T01:06:21;17.00;1.00
1461;DHT22;724;49.910;12.530;2022-07-23T01:08:50;17.00;1.00
1461;DHT22;724;49.910;12.530;2022-07-23T01:11:18;16.90;1.00
1461;DHT22;724;49.910;12.530;2022-07-23T01:13:45;16.90;1.00
1461;DHT22;724;49.910;12.530;2022-07-23T01:16:12;17.00;1.00
1461;DHT22;724;49.910;12.530;2022-07-23T01:18:39;17.10;1.00
1461;DHT22;724;49.910;12.530;2022-07-23T01:21:06;17.20;1.00
1461;DHT22;724;49.910;12.530;2022-07-23T01:23:35;17.10;1.00
1461;DHT22;724;49.910;12.530;2022-07-23T01:26:02;16.90;1.00
1461;DHT22;724;49.910;12.530;2022-07-23T01:28:29;17.10;1.00
1461;DHT22;724;49.910;12.530;2022-07-23T01:30:56;17.30;1.00
1461;DHT22;724;49.910;12.530;2022-07-23T01:33:22;17.60;1.00
1461;DHT22;724;49.910;12.530;2022-07-23T01:35:49;17.70;13.40
1461;DHT22;724;49.910;12.530;2022-07-23T01:38:16;17.40;99.90
1461;DHT22;724;49.910;12.530;2022-07-23T01:40:44;17.20;99.90
1461;DHT22;724;49.910;12.530;2022-07-23T01:43:10;17.20;99.90
1461;DHT22;724;49.910;12.530;2022-07-23T01:45:37;17.10;99.90
1461;DHT22;724;49.910;12.530;2022-07-23T01:48:05;17.10;99.90
1461;DHT22;724;49.910;12.530;2022-07-23T01:50:32;16.80;99.90
1461;DHT22;724;49.910;12.530;2022-07-23T01:52:59;16.70;1.00
1461;DHT22;724;49.910;12.530;2022-07-23T01:55:27;16.60;1.00
1461;DHT22;724;49.910;12.530;2022-07-23T01:57:59;16.50;1.00
1461;DHT22;724;49.910;12.530;2022-07-23T02:00:26;16.60;1.00
1461;DHT22;724;49.910;12.530;2022-07-23T02:02:53;16.50;1.00
1461;DHT22;724;49.910;12.530;2022-07-23T02:05:20;16.50;1.00
1461;DHT22;724;49.910;12.530;2022-07-23T02:07:46;16.50;1.00
1461;DHT22;724;49.910;12.530;2022-07-23T02:10:13;16.50;1.00
1461;DHT22;724;49.910;12.530;2022-07-23T02:12:40;16.40;1.00
1461;DHT22;724;49.910;12.530;2022-07-23T02:15:08;16.30;1.00
1461;DHT22;724;49.910;12.530;2022-07-23T02:17:35;16.30;31.00
1461;DHT22;724;49.910;12.530;2022-07-23T02:20:02;16.10;99.90
1461;DHT22;724;49.910;12.530;2022-07-23T02:22:29;16.00;99.90
1461;DHT22;724;49.910;12.530;2022-07-23T02:24:56;16.10;1.00
1461;DHT22;724;49.910;12.530;2022-07-23T02:27:23;15.90;1.00
1461;DHT22;724;49.910;12.530;2022-07-23T02:29:49;16.00;1.00
1461;DHT22;724;49.910;12.530;2022-07-23T02:32:17;15.80;1.00
1461;DHT22;724;49.910;12.530;2022-07-23T02:34:44;15.80;1.00
1461;DHT22;724;49.910;12.530;2022-07-23T02:37:11;16.00;1.00
1461;DHT22;724;49.910;12.530;2022-07-23T02:39:37;16.00;1.00
1461;DHT22;724;49.910;12.530;2022-07-23T02:42:04;16.10;1.00
1461;DHT22;724;49.910;12.530;2022-07-23T02:44:31;16.30;1.00
1461;DHT22;724;49.910;12.530;2022-07-23T02:46:58;16.40;1.00
1461;DHT22;724;49.910;12.530;2022-07-23T02:49:26;16.30;1.00
1461;DHT22;724;49.910;12.530;2022-07-23T02:51:53;16.20;1.00
1461;DHT22;724;49.910;12.530;2022-07-23T02:54:20;16.20;1.00
1461;DHT22;724;49.910;12.530;2022-07-23T02:56:46;16.20;1.00
1461;DHT22;724;49.910;12.530;2022-07-23T02:59:13;16.20;1.00
1461;DHT22;724;49.910;12.530;2022-07-23T03:01:40;16.20;1.00
1461;DHT22;724;49.910;12.530;2022-07-23T03:04:06;16.30;1.00
1461;DHT22;724;49.910;12.530;2022-07-23T03:06:34;16.30;1.00
1461;DHT22;724;49.910;12.530;2022-07-23T03:09:02;16.30;1.00
1461;DHT22;724;49.910;12.530;2022-07-23T03:11:29;16.30;1.00
1461;DHT22;724;49.910;12.530;2022-07-23T03:13:55;16.30;1.00
1461;DHT22;724;49.910;12.530;2022-07-23T03:16:22;16.30;1.00
1461;DHT22;724;49.910;12.530;2022-07-23T03:18:49;16.30;1.00
1461;DHT22;724;49.910;12.530;2022-07-23T03:21:16;16.10;1.00
1461;DHT22;724;49.910;12.530;2022-07-23T03:23:44;16.20;1.00
1461;DHT22;724;49.910;12.530;2022-07-23T03:26:11;16.10;99.90
1461;DHT22;724;49.910;12.530;2022-07-23T03:28:38;16.00;99.90
1461;DHT22;724;49.910;12.530;2022-07-23T03:31:05;16.10;99.90
1461;DHT22;724;49.910;12.530;2022-07-23T03:33:37;16.10;1.00
1461;DHT22;724;49.910;12.530;2022-07-23T03:36:04;16.20;99.90
1461;DHT22;724;49.910;12.530;2022-07-23T03:38:31;16.00;1.00
1461;DHT22;724;49.910;12.530;2022-07-23T03:40:59;16.10;1.00
1461;DHT22;724;49.910;12.530;2022-07-23T03:43:26;16.20;99.90
1461;DHT22;724;49.910;12.530;2022-07-23T03:45:53;16.30;99.90
1461;DHT22;724;49.910;12.530;2022-07-23T03:48:20;16.30;99.90
1461;DHT22;724;49.910;12.530;2022-07-23T03:50:46;16.40;99.90
1461;DHT22;724;49.910;12.530;2022-07-23T03:53:13;16.30;99.90
1461;DHT22;724;49.910;12.530;2022-07-23T03:55:40;16.30;99.90
1461;DHT22;724;49.910;12.530;2022-07-23T03:58:08;16.40;99.90
1461;DHT22;724;49.910;12.530;2022-07-23T04:00:35;16.30;99.90
1461;DHT22;724;49.910;12.530;2022-07-23T04:03:01;16.30;99.90
1461;DHT22;724;49.910;12.530;2022-07-23T04:05:28;16.30;99.90
1461;DHT22;724;49.910;12.530;2022-07-23T04:07:55;16.40;99.90
1461;DHT22;724;49.910;12.530;2022-07-23T04:10:22;16.40;99.90
1461;DHT22;724;49.910;12.530;2022-07-23T04:12:48;16.30;99.90
1461;DHT22;724;49.910;12.530;2022-07-23T04:15:16;16.40;99.90
1461;DHT22;724;49.910;12.530;2022-07-23T04:17:43;16.40;99.90
1461;DHT22;724;49.910;12.530;2022-07-23T04:20:11;16.50;99.90
1461;DHT22;724;49.910;12.530;2022-07-23T04:22:38;17.10;1.00
1461;DHT22;724;49.910;12.530;2022-07-23T04:25:06;17.70;99.90
1461;DHT22;724;49.910;12.530;2022-07-23T04:27:33;17.90;1.00
1461;DHT22;724;49.910;12.530;2022-07-23T04:29:59;17.90;1.00
1461;DHT22;724;49.910;12.530;2022-07-23T04:32:27;18.10;1.00
1461;DHT22;724;49.910;12.530;2022-07-23T04:34:54;18.30;1.00
1461;DHT22;724;49.910;12.530;2022-07-23T04:37:21;18.40;1.00
1461;DHT22;724;49.910;12.530;2022-07-23T04:39:47;18.30;1.00
1461;DHT22;724;49.910;12.530;2022-07-23T04:42:14;18.70;1.00
1461;DHT22;724;49.910;12.530;2022-07-23T04:44:41;18.70;1.00
1461;DHT22;724;49.910;12.530;2022-07-23T04:47:07;18.90;1.00
1461;DHT22;724;49.910;12.530;2022-07-23T04:49:37;18.80;1.00
1461;DHT22;724;49.910;12.530;2022-07-23T04:52:04;18.70;1.00
1461;DHT22;724;49.910;12.530;2022-07-23T04:54:30;18.60;1.00
1461;DHT22;724;49.910;12.530;2022-07-23T04:56:57;18.40;1.00
1461;DHT22;724;49.910;12.530;2022-07-23T04:59:24;18.40;1.00
1461;DHT22;724;49.910;12.530;2022-07-23T05:01:51;18.40;1.00
1461;DHT22;724;49.910;12.530;2022-07-23T05:04:17;18.30;1.00
1461;DHT22;724;49.910;12.530;2022-07-23T05:06:45;18.40;1.00
1461;DHT22;724;49.910;12.530;2022-07-23T05:09:12;18.40;1.00
1461;DHT22;724;49.910;12.530;2022-07-23T05:11:39;18.50;1.00
1461;DHT22;724;49.910;12.530;2022-07-23T05:14:05;18.60;1.00
1461;DHT22;724;49.910;12.530;2022-07-23T05:16:32;18.60;1.00
1461;DHT22;724;49.910;12.530;2022-07-23T05:18:59;18.60;1.00
1461;DHT22;724;49.910;12.530;2022-07-23T05:21:25;18.70;1.00
1461;DHT22;724;49.910;12.530;2022-07-23T05:23:53;18.70;99.90
1461;DHT22;724;49.910;12.530;2022-07-23T05:26:20;18.80;99.90
1461;DHT22;724;49.910;12.530;2022-07-23T05:28:47;18.90;99.90
1461;DHT22;724;49.910;12.530;2022-07-23T05:31:14;18.90;99.90
1461;DHT22;724;49.910;12.530;2022-07-23T05:33:40;19.00;99.90
1461;DHT22;724;49.910;12.530;2022-07-23T05:36:07;18.90;99.90
1461;DHT22;724;49.910;12.530;2022-07-23T05:38:35;19.10;99.90
1461;DHT22;724;49.910;12.530;2022-07-23T05:41:03;19.10;99.90
1461;DHT22;724;49.910;12.530;2022-07-23T05:43:29;19.20;99.90
1461;DHT22;724;49.910;12.530;2022-07-23T05:45:56;19.30;99.90
1461;DHT22;724;49.910;12.530;2022-07-23T05:48:23;19.40;99.90
1461;DHT22;724;49.910;12.530;2022-07-23T05:50:50;19.90;99.90
1461;DHT22;724;49.910;12.530;2022-07-23T05:53:16;20.00;99.90
1461;DHT22;724;49.910;12.530;2022-07-23T05:55:43;20.20;99.90
1461;DHT22;724;49.910;12.530;2022-07-23T05:58:11;20.40;99.90
1461;DHT22;724;49.910;12.530;2022-07-23T06:00:38;20.40;99.90
1461;DHT22;724;49.910;12.530;2022-07-23T06:03:05;20.30;99.90
1461;DHT22;724;49.910;12.530;2022-07-23T06:05:32;20.40;99.90
1461;DHT22;724;49.910;12.530;2022-07-23T06:07:58;20.40;99.90
1461;DHT22;724;49.910;12.530;2022-07-23T06:10:25;20.60;99.90
1461;DHT22;724;49.910;12.530;2022-07-23T06:12:52;20.40;99.90
1461;DHT22;724;49.910;12.530;2022-07-23T06:15:20;20.50;99.90
1461;DHT22;724;49.910;12.530;2022-07-23T06:17:47;20.90;99.90
1461;DHT22;724;49.910;12.530;2022-07-23T06:20:13;21.10;99.90
1461;DHT22;724;49.910;12.530;2022-07-23T06:22:40;21.20;99.30
1461;DHT22;724;49.910;12.530;2022-07-23T06:25:07;21.40;85.40
1461;DHT22;724;49.910;12.530;2022-07-23T06:27:34;21.80;80.30
1461;DHT22;724;49.910;12.530;2022-07-23T06:30:01;22.00;64.70
1461;DHT22;724;49.910;12.530;2022-07-23T06:32:29;22.30;47.70
1461;DHT22;724;49.910;12.530;2022-07-23T06:34:56;22.10;26.00
1461;DHT22;724;49.910;12.530;2022-07-23T06:37:23;22.30;18.20
1461;DHT22;724;49.910;12.530;2022-07-23T06:39:49;22.70;11.50
1461;DHT22;724;49.910;12.530;2022-07-23T06:42:16;22.70;1.00
1461;DHT22;724;49.910;12.530;2022-07-23T06:44:43;22.70;1.00
1461;DHT22;724;49.910;12.530;2022-07-23T06:47:09;22.80;1.00
1461;DHT22;724;49.910;12.530;2022-07-23T06:49:37;23.20;1.00
1461;DHT22;724;49.910;12.530;2022-07-23T06:52:06;23.10;1.00
1461;DHT22;724;49.910;12.530;2022-07-23T06:54:33;23.70;1.00
1461;DHT22;724;49.910;12.530;2022-07-23T06:57:00;23.80;1.00
1461;DHT22;724;49.910;12.530;2022-07-23T06:59:26;23.70;1.00
1461;DHT22;724;49.910;12.530;2022-07-23T07:01:53;23.90;1.00
1461;DHT22;724;49.910;12.530;2022-07-23T07:04:20;23.90;1.00
1461;DHT22;724;49.910;12.530;2022-07-23T07:06:48;23.80;1.00
1461;DHT22;724;49.910;12.530;2022-07-23T07:09:15;23.60;1.00
1461;DHT22;724;49.910;12.530;2022-07-23T07:11:41;24.10;1.00
1461;DHT22;724;49.910;12.530;2022-07-23T07:14:08;23.90;1.00
1461;DHT22;724;49.910;12.530;2022-07-23T07:16:35;23.70;1.00
1461;DHT22;724;49.910;12.530;2022-07-23T07:19:02;23.70;1.00
1461;DHT22;724;49.910;12.530;2022-07-23T07:21:28;23.80;1.00
1461;DHT22;724;49.910;12.530;2022-07-23T07:23:56;24.20;1.00
1461;DHT22;724;49.910;12.530;2022-07-23T07:26:23;24.10;1.00
1461;DHT22;724;49.910;12.530;2022-07-23T07:28:50;24.30;1.00
1461;DHT22;724;49.910;12.530;2022-07-23T07:31:17;23.70;1.00
1461;DHT22;724;49.910;12.530;2022-07-23T07:33:43;24.30;1.00
1461;DHT22;724;49.910;12.530;2022-07-23T07:36:10;24.40;1.00
1461;DHT22;724;49.910;12.530;2022-07-23T07:38:37;24.50;1.00
1461;DHT22;724;49.910;12.530;2022-07-23T07:41:05;24.70;1.00
1461;DHT22;724;49.910;12.530;2022-07-23T07:43:33;24.50;1.00
1461;DHT22;724;49.910;12.530;2022-07-23T07:46:00;24.30;1.00
1461;DHT22;724;49.910;12.530;2022-07-23T07:48:26;24.70;1.00
1461;DHT22;724;49.910;12.530;2022-07-23T07:50:53;24.70;1.00
1461;DHT22;724;49.910;12.530;2022-07-23T07:53:20;24.80;1.00
1461;DHT22;724;49.910;12.530;2022-07-23T07:55:47;25.10;1.00
1461;DHT22;724;49.910;12.530;2022-07-23T07:58:15;25.60;1.00
1461;DHT22;724;49.910;12.530;2022-07-23T08:00:42;24.90;1.00
1461;DHT22;724;49.910;12.530;2022-07-23T08:03:09;25.50;1.00
1461;DHT22;724;49.910;12.530;2022-07-23T08:05:35;25.20;1.00
1461;DHT22;724;49.910;12.530;2022-07-23T08:08:02;25.40;1.00
1461;DHT22;724;49.910;12.530;2022-07-23T08:10:30;25.70;1.00
1461;DHT22;724;49.910;12.530;2022-07-23T08:12:58;25.90;1.00
1461;DHT22;724;49.910;12.530;2022-07-23T08:15:29;25.50;1.00
1461;DHT22;724;49.910;12.530;2022-07-23T08:17:56;25.70;1.00
1461;DHT22;724;49.910;12.530;2022-07-23T08:20:24;25.80;1.00
1461;DHT22;724;49.910;12.530;2022-07-23T08:22:53;25.90;1.00
1461;DHT22;724;49.910;12.530;2022-07-23T08:25:23;26.20;1.00
1461;DHT22;724;49.910;12.530;2022-07-23T08:27:50;26.30;1.00
1461;DHT22;724;49.910;12.530;2022-07-23T08:30:18;25.90;1.00
1461;DHT22;724;49.910;12.530;2022-07-23T08:32:51;25.70;1.00
1461;DHT22;724;49.910;12.530;2022-07-23T08:35:21;26.40;1.00
1461;DHT22;724;49.910;12.530;2022-07-23T08:37:48;26.40;1.00
1461;DHT22;724;49.910;12.530;2022-07-23T08:40:15;26.70;1.00
1461;DHT22;724;49.910;12.530;2022-07-23T08:42:42;27.00;1.00
1461;DHT22;724;49.910;12.530;2022-07-23T08:45:09;26.80;1.00
1461;DHT22;724;49.910;12.530;2022-07-23T08:47:37;27.30;1.00
1461;DHT22;724;49.910;12.530;2022-07-23T08:50:07;27.40;1.00
1461;DHT22;724;49.910;12.530;2022-07-23T08:52:34;27.00;1.00
1461;DHT22;724;49.910;12.530;2022-07-23T08:55:03;27.40;1.00
1461;DHT22;724;49.910;12.530;2022-07-23T08:57:29;27.40;1.00
1461;DHT22;724;49.910;12.530;2022-07-23T09:00:01;28.40;1.00
1461;DHT22;724;49.910;12.530;2022-07-23T09:02:28;29.40;1.00
1461;DHT22;724;49.910;12.530;2022-07-23T09:04:54;29.00;1.00
1461;DHT22;724;49.910;12.530;2022-07-23T09:07:22;28.60;1.00
1461;DHT22;724;49.910;12.530;2022-07-23T09:10:05;28.20;1.00
1461;DHT22;724;49.910;12.530;2022-07-23T09:12:32;28.10;1.00
1461;DHT22;724;49.910;12.530;2022-07-23T09:15:03;28.30;1.00
1461;DHT22;724;49.910;12.530;2022-07-23T09:17:37;28.40;1.00
1461;DHT22;724;49.910;12.530;2022-07-23T09:20:09;28.60;1.00
1461;DHT22;724;49.910;12.530;2022-07-23T09:22:38;27.90;1.00
1461;DHT22;724;49.910;12.530;2022-07-23T09:25:09;28.00;1.00
1461;DHT22;724;49.910;12.530;2022-07-23T09:27:53;29.40;1.00
1461;DHT22;724;49.910;12.530;2022-07-23T09:30:21;28.60;1.00
1461;DHT22;724;49.910;12.530;2022-07-23T09:33:08;28.40;1.00
1461;DHT22;724;49.910;12.530;2022-07-23T09:35:46;28.60;1.00
1461;DHT22;724;49.910;12.530;2022-07-23T09:38:15;28.80;1.00
1461;DHT22;724;49.910;12.530;2022-07-23T09:40:46;28.40;1.00
1461;DHT22;724;49.910;12.530;2022-07-23T09:43:26;27.50;1.00
1461;DHT22;724;49.910;12.530;2022-07-23T09:45:53;26.90;1.00
1461;DHT22;724;49.910;12.530;2022-07-23T09:48:40;26.80;1.00
1461;DHT22;724;49.910;12.530;2022-07-23T09:51:07;26.60;1.00
1461;DHT22;724;49.910;12.530;2022-07-23T09:53:35;26.30;1.00
1461;DHT22;724;49.910;12.530;2022-07-23T09:56:02;25.90;1.00
1461;DHT22;724;49.910;12.530;2022-07-23T09:58:30;25.70;1.00
1461;DHT22;724;49.910;12.530;2022-07-23T10:00:58;25.50;1.00
1461;DHT22;724;49.910;12.530;2022-07-23T10:03:25;24.90;1.00
1461;DHT22;724;49.910;12.530;2022-07-23T10:05:52;24.30;1.00
1461;DHT22;724;49.910;12.530;2022-07-23T10:08:19;23.00;1.00
1461;DHT22;724;49.910;12.530;2022-07-23T10:10:48;22.80;1.00
1461;DHT22;724;49.910;12.530;2022-07-23T10:13:17;22.90;1.00
1461;DHT22;724;49.910;12.530;2022-07-23T10:16:01;22.80;1.00
1461;DHT22;724;49.910;12.530;2022-07-23T10:18:30;22.40;1.00
1461;DHT22;724;49.910;12.530;2022-07-23T10:20:57;22.30;1.00
1461;DHT22;724;49.910;12.530;2022-07-23T10:23:30;22.20;1.00
1461;DHT22;724;49.910;12.530;2022-07-23T10:26:08;21.90;1.00
1461;DHT22;724;49.910;12.530;2022-07-23T10:28:55;21.70;1.00
1461;DHT22;724;49.910;12.530;2022-07-23T10:31:35;21.00;1.00
1461;DHT22;724;49.910;12.530;2022-07-23T10:34:14;20.80;1.00
1461;DHT22;724;49.910;12.530;2022-07-23T10:36:47;20.40;1.00
1461;DHT22;724;49.910;12.530;2022-07-23T10:39:20;20.20;1.00
1461;DHT22;724;49.910;12.530;2022-07-23T10:41:50;20.00;58.20
1461;DHT22;724;49.910;12.530;2022-07-23T10:44:19;19.30;99.90
1461;DHT22;724;49.910;12.530;2022-07-23T10:46:56;19.30;99.90
1461;DHT22;724;49.910;12.530;2022-07-23T10:49:33;19.40;99.90
1461;DHT22;724;49.910;12.530;2022-07-23T10:52:20;19.40;99.90
1461;DHT22;724;49.910;12.530;2022-07-23T10:54:48;19.60;99.90
1461;DHT22;724;49.910;12.530;2022-07-23T10:57:18;20.10;99.90
1461;DHT22;724;49.910;12.530;2022-07-23T11:02:53;20.10;99.90
1461;DHT22;724;49.910;12.530;2022-07-23T11:05:22;19.90;99.90
1461;DHT22;724;49.910;12.530;2022-07-23T11:08:13;19.90;99.90
1461;DHT22;724;49.910;12.530;2022-07-23T11:10:44;19.70;99.90
1461;DHT22;724;49.910;12.530;2022-07-23T11:13:36;19.50;99.90
1461;DHT22;724;49.910;12.530;2022-07-23T11:19:05;19.60;99.90
1461;DHT22;724;49.910;12.530;2022-07-23T11:21:43;19.70;99.90
1461;DHT22;724;49.910;12.530;2022-07-23T11:24:11;19.50;99.90
1461;DHT22;724;49.910;12.530;2022-07-23T11:26:47;19.60;99.90
1461;DHT22;724;49.910;12.530;2022-07-23T11:32:45;19.50;99.90
1461;DHT22;724;49.910;12.530;2022-07-23T11:35:20;19.60;99.90
1461;DHT22;724;49.910;12.530;2022-07-23T11:37:47;19.60;99.90
1461;DHT22;724;49.910;12.530;2022-07-23T11:40:19;19.70;99.90
1461;DHT22;724;49.910;12.530;2022-07-23T11:42:52;19.70;99.90
1461;DHT22;724;49.910;12.530;2022-07-23T11:45:25;19.60;99.90
1461;DHT22;724;49.910;12.530;2022-07-23T11:47:54;19.70;99.90
1461;DHT22;724;49.910;12.530;2022-07-23T11:50:25;19.70;99.90
1461;DHT22;724;49.910;12.530;2022-07-23T11:52:52;19.60;99.90
1461;DHT22;724;49.910;12.530;2022-07-23T11:55:20;19.90;99.90
1461;DHT22;724;49.910;12.530;2022-07-23T11:57:48;20.00;99.90
1461;DHT22;724;49.910;12.530;2022-07-23T12:00:17;20.20;99.90
1461;DHT22;724;49.910;12.530;2022-07-23T12:02:47;20.40;99.90
1461;DHT22;724;49.910;12.530;2022-07-23T12:05:20;20.40;99.90
1461;DHT22;724;49.910;12.530;2022-07-23T12:07:48;20.40;99.90
1461;DHT22;724;49.910;12.530;2022-07-23T12:10:21;20.30;99.90
1461;DHT22;724;49.910;12.530;2022-07-23T12:12:50;20.30;99.90
1461;DHT22;724;49.910;12.530;2022-07-23T12:15:20;20.20;99.90
1461;DHT22;724;49.910;12.530;2022-07-23T12:17:48;20.10;99.90
1461;DHT22;724;49.910;12.530;2022-07-23T12:20:20;20.30;99.90
1461;DHT22;724;49.910;12.530;2022-07-23T12:22:49;20.30;99.90
1461;DHT22;724;49.910;12.530;2022-07-23T12:25:17;20.40;99.90
1461;DHT22;724;49.910;12.530;2022-07-23T12:27:46;20.00;99.90
1461;DHT22;724;49.910;12.530;2022-07-23T12:30:31;19.80;99.90
1461;DHT22;724;49.910;12.530;2022-07-23T12:32:59;19.70;99.90
1461;DHT22;724;49.910;12.530;2022-07-23T12:35:34;19.80;99.90
1461;DHT22;724;49.910;12.530;2022-07-23T12:38:03;19.80;99.90
1461;DHT22;724;49.910;12.530;2022-07-23T12:40:32;19.80;99.90
1461;DHT22;724;49.910;12.530;2022-07-23T12:43:02;20.10;99.90
1461;DHT22;724;49.910;12.530;2022-07-23T12:45:44;20.30;99.90
1461;DHT22;724;49.910;12.530;2022-07-23T12:48:17;20.60;99.90
1461;DHT22;724;49.910;12.530;2022-07-23T12:50:57;20.60;99.90
1461;DHT22;724;49.910;12.530;2022-07-23T12:53:29;20.70;99.90
1461;DHT22;724;49.910;12.530;2022-07-23T12:56:02;20.80;99.90
1461;DHT22;724;49.910;12.530;2022-07-23T12:58:40;20.70;99.90
1461;DHT22;724;49.910;12.530;2022-07-23T13:01:07;20.80;99.90
1461;DHT22;724;49.910;12.530;2022-07-23T13:03:37;21.10;99.90
1461;DHT22;724;49.910;12.530;2022-07-23T13:06:08;20.80;99.90
1461;DHT22;724;49.910;12.530;2022-07-23T13:08:37;20.70;99.90
1461;DHT22;724;49.910;12.530;2022-07-23T13:11:06;20.80;99.90
1461;DHT22;724;49.910;12.530;2022-07-23T13:13:34;20.90;99.90
1461;DHT22;724;49.910;12.530;2022-07-23T13:16:02;21.10;99.90
1461;DHT22;724;49.910;12.530;2022-07-23T13:18:29;21.00;90.30
1461;DHT22;724;49.910;12.530;2022-07-23T13:20:56;21.00;84.70
1461;DHT22;724;49.910;12.530;2022-07-23T13:23:25;21.20;86.30
1461;DHT22;724;49.910;12.530;2022-07-23T13:25:52;21.50;59.20
1461;DHT22;724;49.910;12.530;2022-07-23T13:28:20;21.70;36.90
1461;DHT22;724;49.910;12.530;2022-07-23T13:30:48;22.00;15.80
1461;DHT22;724;49.910;12.530;2022-07-23T13:33:16;22.50;2.90
1461;DHT22;724;49.910;12.530;2022-07-23T13:35:43;22.40;1.00
1461;DHT22;724;49.910;12.530;2022-07-23T13:38:10;22.20;1.00
1461;DHT22;724;49.910;12.530;2022-07-23T13:40:40;22.10;1.00
1461;DHT22;724;49.910;12.530;2022-07-23T13:43:09;22.40;1.00
1461;DHT22;724;49.910;12.530;2022-07-23T13:45:36;22.60;1.00
1461;DHT22;724;49.910;12.530;2022-07-23T13:48:04;22.60;1.00
1461;DHT22;724;49.910;12.530;2022-07-23T13:50:31;22.90;1.00
1461;DHT22;724;49.910;12.530;2022-07-23T13:53:01;22.90;1.00
1461;DHT22;724;49.910;12.530;2022-07-23T13:55:28;22.70;1.00
1461;DHT22;724;49.910;12.530;2022-07-23T13:57:57;23.10;1.00
1461;DHT22;724;49.910;12.530;2022-07-23T14:00:24;23.20;1.00
1461;DHT22;724;49.910;12.530;2022-07-23T14:02:52;23.00;1.00
1461;DHT22;724;49.910;12.530;2022-07-23T14:05:19;22.80;1.00
1461;DHT22;724;49.910;12.530;2022-07-23T14:07:46;22.90;1.00
1461;DHT22;724;49.910;12.530;2022-07-23T14:10:16;23.10;1.00
1461;DHT22;724;49.910;12.530;2022-07-23T14:12:43;23.10;1.00
1461;DHT22;724;49.910;12.530;2022-07-23T14:15:11;23.40;1.00
1461;DHT22;724;49.910;12.530;2022-07-23T14:17:40;24.00;1.00
1461;DHT22;724;49.910;12.530;2022-07-23T14:20:08;24.10;1.00
1461;DHT22;724;49.910;12.530;2022-07-23T14:22:35;23.70;1.00
1461;DHT22;724;49.910;12.530;2022-07-23T14:25:03;23.60;1.00
1461;DHT22;724;49.910;12.530;2022-07-23T14:27:30;23.50;1.00
1461;DHT22;724;49.910;12.530;2022-07-23T14:29:57;23.70;1.00
1461;DHT22;724;49.910;12.530;2022-07-23T14:32:26;23.60;1.00
1461;DHT22;724;49.910;12.530;2022-07-23T14:34:52;24.00;1.00
1461;DHT22;724;49.910;12.530;2022-07-23T14:37:19;24.00;1.00
1461;DHT22;724;49.910;12.530;2022-07-23T14:39:46;24.20;1.00
1461;DHT22;724;49.910;12.530;2022-07-23T14:42:13;24.60;1.00
1461;DHT22;724;49.910;12.530;2022-07-23T14:44:40;24.50;1.00
1461;DHT22;724;49.910;12.530;2022-07-23T14:47:08;24.30;1.00
1461;DHT22;724;49.910;12.530;2022-07-23T14:49:36;24.50;1.00
1461;DHT22;724;49.910;12.530;2022-07-23T14:52:04;24.80;1.00
1461;DHT22;724;49.910;12.530;2022-07-23T14:54:31;24.90;1.00
1461;DHT22;724;49.910;12.530;2022-07-23T14:56:59;25.10;1.00
1461;DHT22;724;49.910;12.530;2022-07-23T14:59:26;25.00;1.00
1461;DHT22;724;49.910;12.530;2022-07-23T15:01:53;24.90;1.00
1461;DHT22;724;49.910;12.530;2022-07-23T15:04:21;24.80;1.00
1461;DHT22;724;49.910;12.530;2022-07-23T15:06:49;25.00;1.00
1461;DHT22;724;49.910;12.530;2022-07-23T15:09:16;25.20;1.00
1461;DHT22;724;49.910;12.530;2022-07-23T15:11:42;25.30;1.00
1461;DHT22;724;49.910;12.530;2022-07-23T15:14:09;24.90;1.00
1461;DHT22;724;49.910;12.530;2022-07-23T15:16:36;24.60;1.00
1461;DHT22;724;49.910;12.530;2022-07-23T15:19:03;24.60;1.00
1461;DHT22;724;49.910;12.530;2022-07-23T15:21:31;24.40;1.00
1461;DHT22;724;49.910;12.530;2022-07-23T15:23:59;24.60;1.00
1461;DHT22;724;49.910;12.530;2022-07-23T15:26:26;24.60;1.00
1461;DHT22;724;49.910;12.530;2022-07-23T15:28:52;25.20;1.00
1461;DHT22;724;49.910;12.530;2022-07-23T15:31:19;24.90;1.00
1461;DHT22;724;49.910;12.530;2022-07-23T15:33:46;24.80;1.00
1461;DHT22;724;49.910;12.530;2022-07-23T15:36:13;24.80;1.00
1461;DHT22;724;49.910;12.530;2022-07-23T15:38:39;24.80;1.00
1461;DHT22;724;49.910;12.530;2022-07-23T15:41:08;24.80;1.00
1461;DHT22;724;49.910;12.530;2022-07-23T15:43:34;24.40;1.00
1461;DHT22;724;49.910;12.530;2022-07-23T15:46:01;24.10;1.00
1461;DHT22;724;49.910;12.530;2022-07-23T15:48:30;24.30;1.00
1461;DHT22;724;49.910;12.530;2022-07-23T15:50:56;24.10;1.00
1461;DHT22;724;49.910;12.530;2022-07-23T15:53:23;23.80;1.00
1461;DHT22;724;49.910;12.530;2022-07-23T15:55:50;23.40;1.00
1461;DHT22;724;49.910;12.530;2022-07-23T15:58:18;23.30;1.00
1461;DHT22;724;49.910;12.530;2022-07-23T16:00:45;23.10;1.00
1461;DHT22;724;49.910;12.530;2022-07-23T16:03:12;22.60;1.00
1461;DHT22;724;49.910;12.530;2022-07-23T16:05:40;22.10;1.00
1461;DHT22;724;49.910;12.530;2022-07-23T16:08:07;21.50;12.60
1461;DHT22;724;49.910;12.530;2022-07-23T16:10:34;21.30;99.90
1461;DHT22;724;49.910;12.530;2022-07-23T16:13:01;21.10;99.90
1461;DHT22;724;49.910;12.530;2022-07-23T16:15:29;21.20;99.90
1461;DHT22;724;49.910;12.530;2022-07-23T16:17:56;21.10;99.90
1461;DHT22;724;49.910;12.530;2022-07-23T16:20:23;21.50;99.90
1461;DHT22;724;49.910;12.530;2022-07-23T16:22:50;22.00;99.90
1461;DHT22;724;49.910;12.530;2022-07-23T16:25:17;21.70;99.90
1461;DHT22;724;49.910;12.530;2022-07-23T16:27:43;21.70;99.90
1461;DHT22;724;49.910;12.530;2022-07-23T16:30:12;21.70;99.90